sensor_id;sensor_type;location;lat;lon;timestamp;P1;durP1;ratioP1;P2;durP2;ratioP2
40629;SDS011;26329;40.388;-3.710;2024-03-06T00:08:39;46.30;;;20.57;;
40629;SDS011;26329;40.388;-3.710;2024-03-06T00:18:41;46.17;;;20.53;;
40629;SDS011;26329;40.388;-3.710;2024-03-06T00:28:42;46.20;;;20.40;;
40629;SDS011;26329;40.388;-3.710;2024-03-06T00:38:44;44.77;;;20.13;;
40629;SDS011;26329;40.388;-3.710;2024-03-06T00:48:46;44.17;;;19.97;;
40629;SDS011;26329;40.388;-3.710;2024-03-06T00:58:48;44.50;;;20.00;;
40629;SDS011;26329;40.388;-3.710;2024-03-06T01:08:50;45.00;;;20.17;;
40629;SDS011;26329;40.388;-3.710;2024-03-06T01:18:51;44.10;;;20.00;;
40629;SDS011;26329;40.388;-3.710;2024-03-06T01:28:53;43.97;;;19.83;;
40629;SDS011;26329;40.388;-3.710;2024-03-06T01:38:54;45.67;;;20.33;;
40629;SDS011;26329;40.388;-3.710;2024-03-06T01:48:56;45.07;;;20.00;;
40629;SDS011;26329;40.388;-3.710;2024-03-06T01:58:57;44.70;;;20.07;;
40629;SDS011;26329;40.388;-3.710;2024-03-06T02:09:00;45.17;;;20.23;;
40629;SDS011;26329;40.388;-3.710;2024-03-06T02:19:04;43.47;;;19.90;;
40629;SDS011;26329;40.388;-3.710;2024-03-06T02:29:07;44.27;;;19.90;;
40629;SDS011;26329;40.388;-3.710;2024-03-06T02:39:10;42.87;;;19.47;;
40629;SDS011;26329;40.388;-3.710;2024-03-06T02:49:13;42.83;;;19.50;;
40629;SDS011;26329;40.388;-3.710;2024-03-06T02:59:15;42.37;;;19.37;;
40629;SDS011;26329;40.388;-3.710;2024-03-06T03:09:18;42.50;;;19.60;;
40629;SDS011;26329;40.388;-3.710;2024-03-06T03:19:22;42.23;;;19.53;;
40629;SDS011;26329;40.388;-3.710;2024-03-06T03:29:24;42.27;;;19.40;;
40629;SDS011;26329;40.388;-3.710;2024-03-06T03:39:26;41.77;;;19.37;;
40629;SDS011;26329;40.388;-3.710;2024-03-06T03:49:27;41.27;;;19.27;;
40629;SDS011;26329;40.388;-3.710;2024-03-06T03:59:29;41.13;;;19.23;;
40629;SDS011;26329;40.388;-3.710;2024-03-06T04:09:32;41.40;;;19.20;;
40629;SDS011;26329;40.388;-3.710;2024-03-06T04:19:36;40.33;;;19.03;;
40629;SDS011;26329;40.388;-3.710;2024-03-06T04:29:38;40.53;;;19.07;;
40629;SDS011;26329;40.388;-3.710;2024-03-06T04:39:39;39.77;;;19.00;;
40629;SDS011;26329;40.388;-3.710;2024-03-06T04:49:41;39.87;;;19.00;;
40629;SDS011;26329;40.388;-3.710;2024-03-06T04:59:43;39.93;;;19.10;;
40629;SDS011;26329;40.388;-3.710;2024-03-06T05:09:44;39.23;;;18.57;;
40629;SDS011;26329;40.388;-3.710;2024-03-06T05:19:46;40.37;;;19.07;;
40629;SDS011;26329;40.388;-3.710;2024-03-06T05:29:50;39.72;;;18.98;;
40629;SDS011;26329;40.388;-3.710;2024-03-06T05:39:53;39.80;;;18.70;;
40629;SDS011;26329;40.388;-3.710;2024-03-06T05:49:55;39.73;;;18.60;;
40629;SDS011;26329;40.388;-3.710;2024-03-06T05:59:58;39.87;;;18.57;;
40629;SDS011;26329;40.388;-3.710;2024-03-06T06:09:59;39.87;;;18.67;;
40629;SDS011;26329;40.388;-3.710;2024-03-06T06:20:01;39.03;;;18.30;;
40629;SDS011;26329;40.388;-3.710;2024-03-06T06:30:03;40.40;;;18.90;;
40629;SDS011;26329;40.388;-3.710;2024-03-06T06:40:06;40.30;;;18.93;;
40629;SDS011;26329;40.388;-3.710;2024-03-06T06:50:09;39.27;;;18.57;;
40629;SDS011;26329;40.388;-3.710;2024-03-06T07:00:12;40.33;;;18.87;;
40629;SDS011;26329;40.388;-3.710;2024-03-06T07:10:14;40.30;;;18.87;;
40629;SDS011;26329;40.388;-3.710;2024-03-06T07:20:17;40.37;;;18.90;;
40629;SDS011;26329;40.388;-3.710;2024-03-06T07:30:19;39.97;;;19.03;;
40629;SDS011;26329;40.388;-3.710;2024-03-06T07:40:22;40.20;;;19.07;;
40629;SDS011;26329;40.388;-3.710;2024-03-06T07:50:24;39.77;;;18.93;;
40629;SDS011;26329;40.388;-3.710;2024-03-06T08:00:26;40.37;;;19.07;;
40629;SDS011;26329;40.388;-3.710;2024-03-06T08:10:29;40.40;;;18.97;;
40629;SDS011;26329;40.388;-3.710;2024-03-06T08:20:32;40.73;;;19.07;;
40629;SDS011;26329;40.388;-3.710;2024-03-06T08:30:34;41.77;;;19.37;;
40629;SDS011;26329;40.388;-3.710;2024-03-06T08:40:35;42.53;;;19.53;;
40629;SDS011;26329;40.388;-3.710;2024-03-06T08:50:39;42.67;;;19.67;;
40629;SDS011;26329;40.388;-3.710;2024-03-06T09:00:40;43.13;;;19.67;;
40629;SDS011;26329;40.388;-3.710;2024-03-06T09:10:43;44.67;;;20.13;;
40629;SDS011;26329;40.388;-3.710;2024-03-06T09:20:44;46.07;;;20.30;;
40629;SDS011;26329;40.388;-3.710;2024-03-06T09:30:46;47.07;;;20.63;;
40629;SDS011;26329;40.388;-3.710;2024-03-06T09:40:47;47.67;;;20.87;;
40629;SDS011;26329;40.388;-3.710;2024-03-06T09:50:49;48.07;;;20.97;;
40629;SDS011;26329;40.388;-3.710;2024-03-06T10:00:53;49.47;;;21.37;;
40629;SDS011;26329;40.388;-3.710;2024-03-06T10:10:56;49.78;;;21.58;;
40629;SDS011;26329;40.388;-3.710;2024-03-06T10:20:58;51.83;;;21.90;;
40629;SDS011;26329;40.388;-3.710;2024-03-06T10:31:02;49.90;;;21.52;;
40629;SDS011;26329;40.388;-3.710;2024-03-06T10:41:05;51.93;;;21.97;;
40629;SDS011;26329;40.388;-3.710;2024-03-06T10:51:08;51.97;;;21.87;;
40629;SDS011;26329;40.388;-3.710;2024-03-06T11:01:11;52.67;;;22.20;;
40629;SDS011;26329;40.388;-3.710;2024-03-06T11:11:19;53.27;;;22.20;;
40629;SDS011;26329;40.388;-3.710;2024-03-06T11:31:25;54.90;;;22.80;;
40629;SDS011;26329;40.388;-3.710;2024-03-06T11:41:27;54.77;;;22.50;;
40629;SDS011;26329;40.388;-3.710;2024-03-06T11:51:29;55.77;;;22.90;;
40629;SDS011;26329;40.388;-3.710;2024-03-06T12:01:32;56.67;;;23.00;;
40629;SDS011;26329;40.388;-3.710;2024-03-06T12:11:35;57.03;;;23.10;;
40629;SDS011;26329;40.388;-3.710;2024-03-06T12:21:38;58.17;;;23.60;;
40629;SDS011;26329;40.388;-3.710;2024-03-06T12:31:41;59.40;;;23.70;;
40629;SDS011;26329;40.388;-3.710;2024-03-06T12:41:43;60.37;;;23.90;;
40629;SDS011;26329;40.388;-3.710;2024-03-06T12:51:45;58.73;;;23.50;;
40629;SDS011;26329;40.388;-3.710;2024-03-06T13:01:48;59.07;;;23.40;;
40629;SDS011;26329;40.388;-3.710;2024-03-06T13:11:50;59.90;;;23.53;;
40629;SDS011;26329;40.388;-3.710;2024-03-06T13:21:52;59.57;;;23.27;;
40629;SDS011;26329;40.388;-3.710;2024-03-06T13:31:54;61.50;;;24.10;;
40629;SDS011;26329;40.388;-3.710;2024-03-06T13:41:55;62.13;;;24.20;;
40629;SDS011;26329;40.388;-3.710;2024-03-06T13:51:57;61.70;;;24.07;;
40629;SDS011;26329;40.388;-3.710;2024-03-06T14:01:59;63.63;;;24.43;;
40629;SDS011;26329;40.388;-3.710;2024-03-06T14:12:01;62.23;;;23.93;;
40629;SDS011;26329;40.388;-3.710;2024-03-06T14:22:03;63.63;;;24.47;;
40629;SDS011;26329;40.388;-3.710;2024-03-06T14:32:06;65.23;;;25.03;;
40629;SDS011;26329;40.388;-3.710;2024-03-06T14:42:09;61.97;;;23.80;;
40629;SDS011;26329;40.388;-3.710;2024-03-06T14:52:12;63.17;;;24.27;;
40629;SDS011;26329;40.388;-3.710;2024-03-06T15:02:13;63.50;;;24.53;;
40629;SDS011;26329;40.388;-3.710;2024-03-06T15:12:15;62.90;;;24.23;;
40629;SDS011;26329;40.388;-3.710;2024-03-06T15:22:16;62.87;;;24.33;;
40629;SDS011;26329;40.388;-3.710;2024-03-06T15:32:18;63.30;;;24.27;;
40629;SDS011;26329;40.388;-3.710;2024-03-06T15:42:21;64.57;;;24.90;;
40629;SDS011;26329;40.388;-3.710;2024-03-06T15:52:23;62.13;;;24.17;;
40629;SDS011;26329;40.388;-3.710;2024-03-06T16:02:24;60.47;;;23.60;;
40629;SDS011;26329;40.388;-3.710;2024-03-06T16:12:26;61.30;;;23.83;;
40629;SDS011;26329;40.388;-3.710;2024-03-06T16:22:28;62.00;;;24.07;;
40629;SDS011;26329;40.388;-3.710;2024-03-06T16:32:29;61.00;;;23.57;;
40629;SDS011;26329;40.388;-3.710;2024-03-06T16:42:31;62.27;;;24.07;;
40629;SDS011;26329;40.388;-3.710;2024-03-06T16:52:33;63.07;;;24.20;;
40629;SDS011;26329;40.388;-3.710;2024-03-06T17:02:35;62.73;;;24.27;;
40629;SDS011;26329;40.388;-3.710;2024-03-06T17:12:36;62.73;;;24.40;;
40629;SDS011;26329;40.388;-3.710;2024-03-06T17:22:38;62.27;;;24.20;;
40629;SDS011;26329;40.388;-3.710;2024-03-06T17:32:40;61.70;;;24.20;;
40629;SDS011;26329;40.388;-3.710;2024-03-06T17:42:41;60.43;;;23.70;;
40629;SDS011;26329;40.388;-3.710;2024-03-06T17:52:43;59.73;;;23.20;;
40629;SDS011;26329;40.388;-3.710;2024-03-06T18:02:45;60.57;;;23.57;;
40629;SDS011;26329;40.388;-3.710;2024-03-06T18:12:47;59.93;;;23.43;;
40629;SDS011;26329;40.388;-3.710;2024-03-06T18:22:48;57.17;;;23.17;;
40629;SDS011;26329;40.388;-3.710;2024-03-06T18:32:49;57.70;;;23.13;;
40629;SDS011;26329;40.388;-3.710;2024-03-06T18:42:51;59.57;;;23.57;;
40629;SDS011;26329;40.388;-3.710;2024-03-06T18:52:52;60.23;;;23.67;;
40629;SDS011;26329;40.388;-3.710;2024-03-06T19:02:56;60.33;;;23.80;;
40629;SDS011;26329;40.388;-3.710;2024-03-06T19:12:57;61.57;;;24.07;;
40629;SDS011;26329;40.388;-3.710;2024-03-06T19:22:59;59.13;;;23.63;;
40629;SDS011;26329;40.388;-3.710;2024-03-06T19:33:00;56.87;;;23.03;;
40629;SDS011;26329;40.388;-3.710;2024-03-06T19:43:02;58.90;;;23.50;;
40629;SDS011;26329;40.388;-3.710;2024-03-06T19:53:04;59.60;;;23.77;;
40629;SDS011;26329;40.388;-3.710;2024-03-06T20:03:05;57.70;;;23.17;;
40629;SDS011;26329;40.388;-3.710;2024-03-06T20:13:07;58.07;;;23.30;;
40629;SDS011;26329;40.388;-3.710;2024-03-06T20:23:08;55.57;;;22.87;;
40629;SDS011;26329;40.388;-3.710;2024-03-06T20:33:11;54.27;;;22.37;;
40629;SDS011;26329;40.388;-3.710;2024-03-06T20:43:12;55.53;;;22.70;;
40629;SDS011;26329;40.388;-3.710;2024-03-06T20:53:13;56.83;;;23.10;;
40629;SDS011;26329;40.388;-3.710;2024-03-06T21:03:16;56.63;;;22.93;;
40629;SDS011;26329;40.388;-3.710;2024-03-06T21:13:18;56.17;;;22.97;;
40629;SDS011;26329;40.388;-3.710;2024-03-06T21:23:21;56.00;;;22.87;;
40629;SDS011;26329;40.388;-3.710;2024-03-06T21:33:23;55.60;;;22.80;;
40629;SDS011;26329;40.388;-3.710;2024-03-06T21:43:25;56.20;;;23.07;;
40629;SDS011;26329;40.388;-3.710;2024-03-06T21:53:26;56.37;;;23.07;;
40629;SDS011;26329;40.388;-3.710;2024-03-06T22:03:28;55.33;;;22.87;;
40629;SDS011;26329;40.388;-3.710;2024-03-06T22:13:29;54.67;;;22.60;;
40629;SDS011;26329;40.388;-3.710;2024-03-06T22:23:34;54.17;;;22.50;;
40629;SDS011;26329;40.388;-3.710;2024-03-06T22:33:37;53.50;;;22.23;;
40629;SDS011;26329;40.388;-3.710;2024-03-06T22:43:38;53.57;;;22.20;;
40629;SDS011;26329;40.388;-3.710;2024-03-06T22:53:40;53.50;;;22.30;;
40629;SDS011;26329;40.388;-3.710;2024-03-06T23:03:43;53.60;;;22.20;;
40629;SDS011;26329;40.388;-3.710;2024-03-06T23:13:45;52.97;;;22.07;;
40629;SDS011;26329;40.388;-3.710;2024-03-06T23:23:47;53.30;;;22.20;;
40629;SDS011;26329;40.388;-3.710;2024-03-06T23:33:49;52.87;;;22.13;;
40629;SDS011;26329;40.388;-3.710;2024-03-06T23:43:50;52.47;;;22.17;;
40629;SDS011;26329;40.388;-3.710;2024-03-06T23:53:52;51.70;;;21.80;;
